Time;durP1;ratioP1;P1;durP2;ratioP2;P2;SDS_P1;SDS_P2;PMS_P1;PMS_P2;Temp;Humidity;BMP_temperature;BMP_pressure;BME280_temperature;BME280_humidity;BME280_pressure;Samples;Min_cycle;Max_cycle;Signal;HPM_P1;HPM_P2
2023/05/01 00:02:08;;;;;;;6.47;3.97;;;;;;;13.13;65.65;99965.00;4768740;28;20081;-87
2023/05/01 00:05:15;;;;;;;7.15;3.88;;;;;;;13.22;65.64;99950.75;4834144;28;20448;-87
2023/05/01 00:08:49;;;;;;;;;;;;;;;;;;;;;
2023/05/01 00:11:37;;;;;;;8.98;3.60;;;;;;;13.25;64.25;99942.47;4870943;28;20050;-87
2023/05/01 00:14:42;;;;;;;6.03;3.42;;;;;;;13.34;64.68;99946.94;4844336;28;20624;-87
2023/05/01 00:18:17;;;;;;;9.45;4.00;;;;;;;13.28;64.18;99938.69;4795596;28;20078;-86
2023/05/01 00:21:46;;;;;;;;;;;;;;;;;;;;;
2023/05/01 00:25:01;;;;;;;9.63;3.75;;;;;;;13.30;63.87;99932.22;4844636;28;20038;-86
2023/05/01 00:28:28;;;;;;;8.75;3.88;;;;;;;13.29;63.46;99933.22;4862692;28;20039;-86
2023/05/01 00:32:12;;;;;;;5.97;3.53;;;;;;;13.32;62.51;99932.91;4823811;28;20515;-86
2023/05/01 00:34:56;;;;;;;4.43;3.17;;;;;;;13.61;60.08;99923.84;4849403;28;20127;-86
2023/05/01 00:37:48;;;;;;;7.53;3.63;;;;;;;13.75;59.10;99925.13;4897479;28;20050;-87
2023/05/01 00:40:36;;;;;;;6.97;3.55;;;;;;;13.83;58.46;99917.19;4896126;28;20042;-86
2023/05/01 00:44:44;;;;;;;6.10;3.33;;;;;;;13.71;55.38;99921.91;4818847;28;20795;-87
2023/05/01 00:47:58;;;;;;;4.53;3.60;;;;;;;13.62;55.72;99918.34;4821112;28;20058;-86
2023/05/01 00:50:47;;;;;;;4.55;3.25;;;;;;;13.79;56.06;99907.81;4824191;28;20130;-86
2023/05/01 00:53:58;;;;;;;6.80;3.03;;;;;;;13.81;55.83;99901.31;4811020;28;20052;-86
2023/05/01 00:56:57;;;;;;;7.03;3.25;;;;;;;13.82;56.34;99908.34;4840963;28;20047;-87
2023/05/01 01:00:29;;;;;;;7.43;3.40;;;;;;;13.72;55.19;99904.94;4813763;28;20468;-86
2023/05/01 01:04:34;;;;;;;6.25;3.67;;;;;;;13.68;54.82;99893.72;4769261;29;20084;-86
2023/05/01 01:12:05;;;;;;;5.20;3.50;;;;;;;13.67;56.78;99889.38;4771934;29;20557;-87
2023/05/01 01:15:33;;;;;;;7.97;3.72;;;;;;;13.79;55.02;99897.13;4774006;29;20334;-87
2023/05/01 01:18:27;;;;;;;5.53;3.83;;;;;;;13.88;56.30;99885.53;4694408;29;20057;-87
2023/05/01 01:21:11;;;;;;;;;;;;;;;13.61;56.37;99884.66;4801122;29;20057;-87
2023/05/01 01:24:10;;;;;;;4.05;3.17;;;;;;;13.60;57.15;99876.81;4811063;28;19926;-86
2023/05/01 01:27:14;;;;;;;7.78;4.22;;;;;;;13.63;56.97;99880.00;4851546;29;20044;-86
2023/05/01 01:30:57;;;;;;;;;;;;;;;;;;;;;
2023/05/01 01:38:04;;;;;;;7.55;4.20;;;;;;;13.57;56.15;99882.47;4871329;28;20053;-87
2023/05/01 01:48:48;;;;;;;6.35;3.78;;;;;;;13.61;55.24;99874.00;4827739;29;20051;-87
2023/05/01 01:53:18;;;;;;;4.63;3.40;;;;;;;13.52;55.63;99872.25;4832960;28;20449;-87
2023/05/01 01:56:32;;;;;;;6.70;3.90;;;;;;;13.60;55.46;99876.81;4792571;28;21057;-86
2023/05/01 01:59:15;;;;;;;8.70;4.22;;;;;;;13.65;56.48;99870.00;4809624;28;20052;-87
2023/05/01 02:02:01;;;;;;;6.65;4.40;;;;;;;13.66;57.00;99865.50;4833497;29;20056;-86
2023/05/01 02:04:56;;;;;;;8.85;4.35;;;;;;;13.60;56.30;99872.31;4803305;28;20074;-87
2023/05/01 02:07:50;;;;;;;7.30;4.25;;;;;;;13.52;55.83;99869.56;4850328;28;20052;-87
2023/05/01 02:10:37;;;;;;;6.88;4.03;;;;;;;13.49;57.25;99869.88;4881171;28;20792;-86
2023/05/01 02:13:17;;;;;;;6.25;4.60;;;;;;;13.57;56.62;99861.13;4864485;29;20107;-86
2023/05/01 02:17:03;;;;;;;8.18;5.07;;;;;;;13.37;56.74;99871.09;4798298;29;20043;-86
2023/05/01 02:20:09;;;;;;;9.43;4.28;;;;;;;13.43;57.42;99858.00;4767796;29;20128;-87
2023/05/01 02:24:03;;;;;;;5.13;4.13;;;;;;;13.48;56.15;99860.19;4796531;29;20056;-87
2023/05/01 02:27:14;;;;;;;10.65;4.35;;;;;;;13.47;56.03;99869.19;4702642;29;20606;-86
2023/05/01 02:30:28;;;;;;;8.38;5.00;;;;;;;13.39;58.28;99875.31;4771502;29;20041;-87
2023/05/01 02:33:20;;;;;;;7.43;4.72;;;;;;;13.41;58.44;99872.50;4777668;29;20052;-86
2023/05/01 02:36:40;;;;;;;6.25;4.03;;;;;;;13.36;56.73;99872.94;4795926;29;20044;-86
2023/05/01 02:39:25;;;;;;;9.88;4.68;;;;;;;13.28;57.93;99858.69;4786243;29;20081;-87
2023/05/01 02:42:36;;;;;;;7.72;4.82;;;;;;;13.43;57.12;99857.16;4823463;29;20117;-87
2023/05/01 02:45:25;;;;;;;6.75;4.03;;;;;;;13.33;57.44;99848.41;4803090;29;20056;-87
2023/05/01 02:51:35;;;;;;;8.13;5.07;;;;;;;13.30;56.73;99849.53;4788925;28;20118;-87
2023/05/01 02:57:59;;;;;;;13.93;5.50;;;;;;;13.38;56.28;99851.44;4798504;29;20060;-86
2023/05/01 03:00:37;;;;;;;9.35;5.22;;;;;;;13.28;56.21;99837.34;4862272;29;20136;-86
2023/05/01 03:03:21;;;;;;;9.07;5.13;;;;;;;13.30;56.16;99851.38;4844342;29;20052;-87
2023/05/01 03:06:21;;;;;;;8.40;4.57;;;;;;;13.14;56.86;99844.88;4779357;28;20044;-86
2023/05/01 03:10:07;;;;;;;;;;;;;;;;;;;;;
2023/05/01 03:13:33;;;;;;;7.10;4.43;;;;;;;13.36;56.41;99840.09;4786348;29;20224;-87
2023/05/01 03:16:09;;;;;;;8.03;4.80;;;;;;;13.21;57.70;99840.59;4844837;29;20125;-86
2023/05/01 03:25:58;;;;;;;9.18;4.80;;;;;;;13.11;58.40;99829.19;4812592;28;20044;-87
2023/05/01 03:28:50;;;;;;;9.90;4.47;;;;;;;13.08;58.23;99831.28;4886568;28;20058;-87
2023/05/01 03:31:57;;;;;;;6.60;4.57;;;;;;;13.06;57.87;99830.63;4819890;28;20138;-87
2023/05/01 03:34:46;;;;;;;7.60;4.50;;;;;;;12.96;59.87;99830.69;4810988;28;20043;-87
2023/05/01 03:38:04;;;;;;;6.85;4.43;;;;;;;12.91;58.44;99831.13;4822145;28;20688;-86
2023/05/01 03:41:08;;;;;;;9.80;4.88;;;;;;;13.01;58.13;99826.59;4796091;28;20052;-87
2023/05/01 03:44:16;;;;;;;9.45;4.88;;;;;;;13.03;57.05;99824.59;4820300;29;20575;-87
2023/05/01 03:47:02;;;;;;;7.45;5.00;;;;;;;13.05;57.10;99824.44;4857366;28;20052;-86
2023/05/01 03:50:27;;;;;;;7.25;4.70;;;;;;;13.06;56.74;99823.47;4821277;28;20047;-87
2023/05/01 03:53:36;;;;;;;7.97;4.63;;;;;;;13.01;57.11;99833.75;4870256;28;20178;-87
2023/05/01 03:56:27;;;;;;;7.82;4.90;;;;;;;13.06;56.59;99822.63;4857673;28;20055;-86
2023/05/01 03:59:22;;;;;;;15.93;5.78;;;;;;;13.18;55.97;99818.75;4819466;28;20063;-87
2023/05/01 04:02:00;;;;;;;6.70;4.75;;;;;;;13.13;56.33;99813.03;4867195;28;20057;-87
2023/05/01 04:04:55;;;;;;;7.78;5.80;;;;;;;13.07;56.47;99827.78;4837899;28;20052;-86
2023/05/01 04:07:43;;;;;;;6.68;4.20;;;;;;;13.07;56.54;99819.78;4840306;28;20224;-86
2023/05/01 04:10:42;;;;;;;7.13;4.95;;;;;;;13.04;56.98;99812.09;4849626;28;20137;-86
2023/05/01 04:13:25;;;;;;;8.45;5.18;;;;;;;13.07;56.68;99801.13;4801256;28;20050;-87
2023/05/01 04:16:45;;;;;;;7.05;4.95;;;;;;;12.98;56.61;99818.06;4860948;28;20046;-86
2023/05/01 04:19:46;;;;;;;10.75;6.07;;;;;;;13.03;56.34;99815.78;4843585;28;20375;-87
2023/05/01 04:22:38;;;;;;;10.48;4.97;;;;;;;12.97;56.82;99811.88;4874669;28;20051;-87
2023/05/01 04:25:33;;;;;;;7.55;5.18;;;;;;;12.97;56.63;99811.88;4823149;28;20093;-86
2023/05/01 04:28:24;;;;;;;7.05;4.85;;;;;;;12.98;56.37;99808.22;4827691;28;20047;-87
2023/05/01 04:31:08;;;;;;;9.65;5.28;;;;;;;12.96;56.54;99809.38;4837892;28;20512;-87
2023/05/01 04:33:36;;;;;;;11.07;5.35;;;;;;;12.89;56.62;99808.28;4813746;28;20556;-87
2023/05/01 04:36:36;;;;;;;8.87;4.90;;;;;;;12.73;56.90;99811.63;4810413;28;20729;-86
2023/05/01 04:39:55;;;;;;;6.93;4.60;;;;;;;12.80;56.61;99815.38;4810881;29;20115;-87
2023/05/01 04:42:41;;;;;;;10.75;5.78;;;;;;;12.71;57.19;99803.78;4854282;28;20051;-86
2023/05/01 04:45:27;;;;;;;8.18;4.88;;;;;;;12.75;56.99;99807.84;4842514;28;20067;-87
2023/05/01 04:48:03;;;;;;;7.90;4.97;;;;;;;12.84;56.72;99813.25;4849531;28;20077;-87
2023/05/01 04:51:08;;;;;;;;;;;;;;;;;;;;;
2023/05/01 04:53:41;;;;;;;8.10;4.80;;;;;;;12.84;56.47;99799.91;4828598;28;20051;-87
2023/05/01 04:56:47;;;;;;;8.85;5.22;;;;;;;12.80;56.43;99805.56;4799005;29;20417;-86
2023/05/01 05:00:30;;;;;;;7.93;4.90;;;;;;;12.78;56.48;99814.69;4719692;29;20058;-87
2023/05/01 05:03:27;;;;;;;10.48;5.18;;;;;;;12.86;56.52;99804.09;4772742;29;20362;-86
2023/05/01 05:06:10;;;;;;;8.38;5.00;;;;;;;12.86;56.61;99812.09;4765206;29;20076;-86
2023/05/01 05:09:20;;;;;;;12.70;5.30;;;;;;;12.86;55.82;99812.09;4750253;29;20517;-86
2023/05/01 05:12:17;;;;;;;;;;;;;;;;;;;;;
2023/05/01 05:15:13;;;;;;;8.48;4.95;;;;;;;12.81;55.95;99801.06;4764178;29;20498;-87
2023/05/01 05:17:57;;;;;;;7.70;5.20;;;;;;;12.81;56.06;99809.06;4832209;29;20631;-87
2023/05/01 05:21:07;;;;;;;9.25;5.03;;;;;;;12.75;56.72;99809.66;4855419;28;20051;-87
2023/05/01 05:24:36;;;;;;;7.28;5.15;;;;;;;12.74;56.48;99802.66;4850934;28;20058;-87
2023/05/01 05:27:37;;;;;;;9.88;5.40;;;;;;;12.74;56.77;99803.47;4788813;28;20056;-87
2023/05/01 05:30:25;;;;;;;10.20;6.03;;;;;;;12.82;56.48;99802.72;4808643;28;20048;-87
2023/05/01 05:33:02;;;;;;;8.65;5.20;;;;;;;12.88;56.15;99801.31;4850023;28;20449;-86
2023/05/01 05:36:20;;;;;;;8.65;5.18;;;;;;;12.87;56.25;99804.94;4839655;28;20044;-87
2023/05/01 05:43:23;;;;;;;12.55;5.47;;;;;;;12.84;56.24;99803.41;4775945;29;20052;-87
2023/05/01 05:50:22;;;;;;;9.25;4.80;;;;;;;12.89;56.95;99802.97;4859464;28;20136;-87
2023/05/01 05:57:42;;;;;;;11.02;5.60;;;;;;;12.91;56.32;99801.81;4806882;28;20048;-87
2023/05/01 06:01:47;;;;;;;8.55;5.50;;;;;;;12.95;56.79;99799.69;4820564;28;20071;-86
2023/05/01 06:05:58;;;;;;;8.80;5.18;;;;;;;12.93;57.04;99799.84;4831729;28;20074;-87
2023/05/01 06:08:39;;;;;;;10.60;5.50;;;;;;;12.93;56.65;99799.03;4759208;28;21018;-87
2023/05/01 06:15:03;;;;;;;8.48;5.30;;;;;;;13.04;56.84;99788.94;4815457;29;20047;-87
2023/05/01 06:17:58;;;;;;;8.07;4.90;;;;;;;13.06;56.33;99779.97;4805680;28;20559;-86
2023/05/01 06:20:54;;;;;;;9.85;5.15;;;;;;;13.16;56.58;99788.72;4812595;28;20563;-87
2023/05/01 06:23:51;;;;;;;11.25;5.90;;;;;;;13.19;56.56;99783.09;4777525;28;20134;-87
2023/05/01 06:27:13;;;;;;;8.90;4.88;;;;;;;13.15;56.79;99779.91;4793546;28;20048;-87
2023/05/01 06:31:06;;;;;;;7.88;5.18;;;;;;;13.10;56.80;99784.00;4857144;28;20051;-86
2023/05/01 06:34:10;;;;;;;7.97;5.35;;;;;;;13.19;56.92;99791.91;4816461;28;20051;-86
2023/05/01 06:37:15;;;;;;;8.43;5.38;;;;;;;13.31;56.92;99795.22;4713763;29;20618;-87
2023/05/01 06:40:24;;;;;;;11.10;5.72;;;;;;;13.27;56.32;99779.69;4827503;28;21136;-86
2023/05/01 06:43:34;;;;;;;11.77;5.95;;;;;;;13.25;56.52;99783.31;4830399;28;20522;-87
2023/05/01 06:47:05;;;;;;;9.00;5.50;;;;;;;13.38;56.46;99790.09;4780450;28;20049;-86
2023/05/01 06:50:25;;;;;;;12.40;6.10;;;;;;;13.42;57.39;99786.13;4743862;29;20053;-87
2023/05/01 06:53:45;;;;;;;13.35;6.53;;;;;;;13.48;56.19;99790.00;4845348;28;20126;-86
2023/05/01 06:59:59;;;;;;;13.95;7.35;;;;;;;13.41;56.87;99793.31;4857962;28;21607;-87
2023/05/01 07:02:36;;;;;;;12.80;5.95;;;;;;;13.43;56.52;99806.47;4835208;28;20048;-87
2023/05/01 07:05:08;;;;;;;13.43;6.63;;;;;;;13.41;56.32;99792.47;4904704;28;20146;-86
2023/05/01 07:07:51;;;;;;;14.98;6.40;;;;;;;13.41;56.57;99792.47;4873881;28;20048;-87
2023/05/01 07:10:31;;;;;;;9.63;6.03;;;;;;;13.45;56.57;99794.66;4851296;29;20044;-86
2023/05/01 07:13:11;;;;;;;10.25;6.72;;;;;;;13.24;57.33;99792.28;4879833;28;20055;-87
2023/05/01 07:15:52;;;;;;;12.70;6.82;;;;;;;13.40;56.70;99799.63;4846857;28;20043;-87
2023/05/01 07:18:27;;;;;;;18.65;7.05;;;;;;;13.30;57.57;99804.19;4871750;28;20102;-88
2023/05/01 07:21:18;;;;;;;12.38;6.78;;;;;;;13.31;57.87;99795.22;4829864;28;20592;-86
2023/05/01 07:23:52;;;;;;;10.77;6.43;;;;;;;13.28;57.42;99787.53;4849810;28;20457;-87
2023/05/01 07:26:45;;;;;;;11.48;6.40;;;;;;;13.28;57.99;99802.69;4838519;28;20078;-87
2023/05/01 07:29:34;;;;;;;14.50;8.75;;;;;;;13.34;57.77;99802.91;4856485;28;20561;-86
2023/05/01 07:32:31;;;;;;;11.23;6.43;;;;;;;13.27;58.33;99799.19;4847476;28;20633;-87
2023/05/01 07:35:17;;;;;;;10.63;6.22;;;;;;;13.31;58.44;99800.56;4853689;29;20071;-87
2023/05/01 07:37:56;;;;;;;10.50;6.10;;;;;;;13.33;58.47;99803.06;4881153;28;20051;-86
2023/05/01 07:40:39;;;;;;;13.63;6.68;;;;;;;13.25;58.89;99794.00;4912981;28;20058;-86
2023/05/01 07:43:23;;;;;;;11.02;6.57;;;;;;;13.32;58.37;99801.41;4821856;28;20047;-86
2023/05/01 07:46:00;;;;;;;13.73;6.70;;;;;;;13.32;58.55;99798.72;4792244;29;20055;-86
2023/05/01 07:48:33;;;;;;;10.98;6.13;;;;;;;13.37;58.50;99799.09;4820884;29;20061;-87
2023/05/01 07:51:19;;;;;;;10.85;6.35;;;;;;;13.37;58.75;99801.78;4870938;28;20052;-87
2023/05/01 07:54:03;;;;;;;11.23;6.22;;;;;;;13.41;58.63;99801.31;4878939;28;20051;-87
2023/05/01 07:56:47;;;;;;;10.95;6.30;;;;;;;13.44;58.74;99790.31;4839643;28;20409;-87
2023/05/01 07:59:27;;;;;;;12.75;6.80;;;;;;;13.45;58.50;99788.50;4865302;28;20134;-86
2023/05/01 08:02:13;;;;;;;12.70;6.60;;;;;;;13.47;59.04;99786.50;4868646;29;20454;-87
2023/05/01 08:05:13;;;;;;;12.82;7.22;;;;;;;13.53;58.75;99793.88;4846252;29;20324;-87
2023/05/01 08:08:11;;;;;;;10.73;6.47;;;;;;;13.51;59.13;99795.03;4813960;28;20503;-87
2023/05/01 08:11:00;;;;;;;9.05;5.93;;;;;;;13.55;58.98;99791.91;4835309;28;20303;-87
2023/05/01 08:13:38;;;;;;;13.02;6.70;;;;;;;13.63;59.04;99791.13;4844563;29;20162;-87
2023/05/01 08:16:11;;;;;;;13.60;6.47;;;;;;;13.63;58.63;99783.94;4853090;29;20047;-87
2023/05/01 08:18:51;;;;;;;10.40;6.25;;;;;;;13.69;58.51;99779.84;4872780;28;20046;-86
2023/05/01 08:21:18;;;;;;;11.23;7.13;;;;;;;13.74;58.60;99788.19;4898649;29;20202;-87
2023/05/01 08:23:45;;;;;;;12.23;6.90;;;;;;;13.73;59.31;99777.66;4911411;28;20493;-86
2023/05/01 08:26:15;;;;;;;14.13;6.40;;;;;;;13.77;58.76;99773.72;4906663;28;20051;-86
2023/05/01 08:28:42;;;;;;;10.68;6.60;;;;;;;13.78;58.78;99767.38;4907808;28;20055;-87
2023/05/01 08:31:09;;;;;;;14.10;6.60;;;;;;;13.82;58.54;99769.56;4921410;28;20051;-87
2023/05/01 08:33:43;;;;;;;10.95;6.53;;;;;;;13.82;58.78;99768.72;4893965;28;20052;-87
2023/05/01 08:36:13;;;;;;;11.40;6.57;;;;;;;13.80;58.62;99763.53;4914516;28;20484;-86
2023/05/01 08:38:40;;;;;;;10.18;6.70;;;;;;;13.86;58.81;99768.22;4915975;28;20060;-87
2023/05/01 08:41:07;;;;;;;14.82;6.75;;;;;;;13.91;58.72;99762.44;4920851;28;20062;-87
2023/05/01 08:43:40;;;;;;;10.07;6.03;;;;;;;13.96;58.61;99765.44;4870420;28;20071;-87
2023/05/01 08:46:08;;;;;;;13.95;6.57;;;;;;;13.99;58.51;99764.28;4911060;28;20055;-87
2023/05/01 08:48:39;;;;;;;13.23;6.75;;;;;;;14.04;58.25;99767.31;4904807;28;20044;-86
2023/05/01 08:51:09;;;;;;;11.70;6.18;;;;;;;14.02;58.27;99761.34;4907737;28;20047;-86
2023/05/01 08:53:39;;;;;;;12.75;6.80;;;;;;;14.02;58.48;99767.50;4909844;28;20429;-87
2023/05/01 08:56:12;;;;;;;11.35;6.10;;;;;;;14.04;58.38;99772.66;4846254;28;20175;-87
2023/05/01 08:58:40;;;;;;;10.35;5.57;;;;;;;14.02;58.45;99772.00;4852012;28;20051;-88
2023/05/01 09:01:14;;;;;;;13.82;7.13;;;;;;;14.06;58.65;99773.34;4880456;28;20121;-87
2023/05/01 09:03:43;;;;;;;16.98;7.75;;;;;;;14.06;58.70;99776.03;4923381;28;20146;-87
2023/05/01 09:06:12;;;;;;;10.10;6.60;;;;;;;14.08;58.87;99787.38;4898710;28;20056;-88
2023/05/01 09:08:39;;;;;;;14.98;8.18;;;;;;;14.08;58.43;99774.03;4916948;28;20059;-88
2023/05/01 09:11:06;;;;;;;12.00;6.80;;;;;;;14.02;58.38;99772.00;4916402;28;20063;-88
2023/05/01 09:13:33;;;;;;;14.05;7.75;;;;;;;14.05;58.40;99775.19;4920910;28;20054;-88
2023/05/01 09:16:04;;;;;;;13.02;7.25;;;;;;;14.08;58.31;99777.53;4910641;28;20298;-87
2023/05/01 09:21:30;;;;;;;10.82;6.68;;;;;;;14.10;58.13;99778.22;4873146;28;21127;-88
2023/05/01 09:23:57;;;;;;;12.32;6.68;;;;;;;14.15;57.77;99777.75;4876532;28;20047;-87
2023/05/01 09:26:27;;;;;;;11.07;6.85;;;;;;;14.20;57.55;99775.44;4919210;28;20525;-87
2023/05/01 09:28:57;;;;;;;10.73;6.53;;;;;;;14.20;57.56;99775.44;4892242;28;20048;-87
2023/05/01 09:31:33;;;;;;;11.75;7.30;;;;;;;14.26;57.58;99774.78;4920195;28;20040;-88
2023/05/01 09:34:06;;;;;;;10.18;6.90;;;;;;;14.30;57.50;99772.63;4916286;28;20506;-88
2023/05/01 09:36:45;;;;;;;12.70;7.00;;;;;;;14.34;56.76;99779.31;4892606;28;20055;-85
2023/05/01 09:39:21;;;;;;;10.23;6.43;;;;;;;14.38;56.32;99777.16;4881849;28;20416;-86
2023/05/01 09:41:54;;;;;;;15.25;6.72;;;;;;;14.38;56.41;99779.84;4900086;28;20506;-86
2023/05/01 09:44:31;;;;;;;12.85;7.20;;;;;;;14.43;56.41;99773.00;4898867;28;20048;-86
2023/05/01 09:47:02;;;;;;;10.05;7.20;;;;;;;14.52;56.58;99780.03;4891371;28;20508;-85
2023/05/01 09:49:46;;;;;;;12.18;7.10;;;;;;;14.48;56.68;99777.88;4895596;28;20043;-85
2023/05/01 09:52:14;;;;;;;13.82;6.78;;;;;;;14.54;56.54;99780.75;4923826;28;20048;-85
2023/05/01 09:54:41;;;;;;;12.85;7.28;;;;;;;14.59;56.36;99784.78;4919949;28;20107;-84
2023/05/01 09:57:08;;;;;;;13.63;7.53;;;;;;;14.61;56.41;99777.44;4936545;28;20548;-85
2023/05/01 09:59:35;;;;;;;12.05;6.90;;;;;;;14.61;56.15;99780.09;4919672;28;20084;-85
2023/05/01 10:02:02;;;;;;;14.25;7.15;;;;;;;14.64;56.34;99769.91;4919775;28;20051;-85
2023/05/01 10:04:31;;;;;;;10.75;7.10;;;;;;;14.65;56.83;99774.25;4918186;28;20052;-84
2023/05/01 10:07:13;;;;;;;10.38;6.72;;;;;;;14.59;56.19;99768.75;4904837;28;20593;-84
2023/05/01 10:09:41;;;;;;;12.13;7.72;;;;;;;14.72;56.50;99777.09;4918998;28;20398;-84
2023/05/01 10:12:08;;;;;;;12.07;7.13;;;;;;;14.75;56.32;99774.94;4894384;28;20589;-85
2023/05/01 10:14:55;;;;;;;13.77;7.18;;;;;;;14.70;55.24;99781.78;4920054;28;20107;-85
2023/05/01 10:17:22;;;;;;;15.73;9.10;;;;;;;14.80;55.89;99776.28;4917229;28;20044;-85
2023/05/01 10:19:52;;;;;;;10.85;6.95;;;;;;;14.83;55.69;99781.31;4919224;28;20050;-85
2023/05/01 10:22:19;;;;;;;11.70;7.00;;;;;;;14.83;55.68;99774.13;4918510;28;20416;-85
2023/05/01 10:24:46;;;;;;;11.85;7.35;;;;;;;14.87;55.84;99771.97;4905602;28;20083;-85
2023/05/01 10:27:16;;;;;;;12.32;7.18;;;;;;;14.88;55.52;99781.66;4905665;28;20047;-85
2023/05/01 10:29:46;;;;;;;11.40;7.25;;;;;;;14.93;55.51;99777.50;4917965;28;20057;-84
2023/05/01 10:32:13;;;;;;;13.07;7.40;;;;;;;14.96;55.07;99773.66;4904211;28;20075;-85
2023/05/01 10:34:47;;;;;;;10.95;7.53;;;;;;;14.96;54.27;99785.19;4919454;28;20081;-85
2023/05/01 10:37:22;;;;;;;10.48;6.93;;;;;;;15.02;54.63;99770.31;4920324;28;20052;-85
2023/05/01 10:39:48;;;;;;;9.80;7.35;;;;;;;15.10;54.70;99766.81;4921907;28;20075;-85
2023/05/01 10:42:16;;;;;;;10.98;7.38;;;;;;;15.18;54.90;99766.78;4932355;28;20130;-85
2023/05/01 10:44:45;;;;;;;11.93;7.43;;;;;;;15.22;54.07;99762.78;4917576;28;20052;-85
2023/05/01 10:47:24;;;;;;;10.30;7.03;;;;;;;15.15;53.43;99767.97;4909579;28;20055;-85
2023/05/01 10:50:20;;;;;;;10.73;7.68;;;;;;;15.07;53.14;99757.28;4919753;28;20043;-85
2023/05/01 10:53:09;;;;;;;13.25;7.20;;;;;;;15.10;53.05;99754.25;4880712;28;20047;-85
2023/05/01 10:55:42;;;;;;;10.20;6.43;;;;;;;15.17;54.06;99749.09;4936120;28;20099;-85
2023/05/01 10:58:10;;;;;;;11.77;7.20;;;;;;;15.22;54.31;99751.28;4925232;28;20059;-85
2023/05/01 11:00:37;;;;;;;11.88;8.18;;;;;;;15.21;54.36;99747.72;4899184;28;20047;-85
2023/05/01 11:03:19;;;;;;;11.70;7.18;;;;;;;15.18;54.20;99754.25;4910184;28;20078;-84
2023/05/01 11:06:07;;;;;;;9.77;7.28;;;;;;;15.22;54.50;99754.78;4926721;28;20135;-85
2023/05/01 11:08:36;;;;;;;12.60;7.55;;;;;;;15.35;54.51;99754.25;4903191;28;20075;-84
2023/05/01 11:11:18;;;;;;;13.25;7.88;;;;;;;15.36;55.06;99756.75;4905036;28;20039;-85
2023/05/01 11:13:58;;;;;;;10.85;6.30;;;;;;;15.37;55.06;99758.44;4925226;28;20056;-86
2023/05/01 11:16:37;;;;;;;11.10;6.95;;;;;;;15.43;55.12;99761.44;4933758;28;20051;-86
2023/05/01 11:19:08;;;;;;;10.40;6.63;;;;;;;15.53;55.17;99748.72;4916997;28;20532;-85
2023/05/01 11:21:37;;;;;;;10.65;6.90;;;;;;;15.60;55.31;99745.19;4923168;28;20051;-85
2023/05/01 11:24:11;;;;;;;13.70;7.28;;;;;;;15.67;55.29;99750.69;4925124;28;20054;-85
2023/05/01 11:26:39;;;;;;;15.73;7.68;;;;;;;15.74;55.15;99753.56;4919411;28;20044;-86
2023/05/01 11:29:10;;;;;;;11.63;6.70;;;;;;;15.75;54.96;99750.72;4919475;28;20075;-85
2023/05/01 11:31:40;;;;;;;14.07;7.30;;;;;;;15.75;55.09;99747.22;4935026;28;20584;-85
2023/05/01 11:34:08;;;;;;;12.07;7.88;;;;;;;15.66;54.77;99737.50;4919022;28;20060;-85
2023/05/01 11:36:56;;;;;;;13.20;8.18;;;;;;;15.57;54.11;99742.00;4898103;28;20048;-86
2023/05/01 11:39:23;;;;;;;12.20;8.48;;;;;;;15.61;55.03;99735.31;4899379;28;20472;-85
2023/05/01 11:42:05;;;;;;;16.42;8.93;;;;;;;15.57;54.45;99745.53;4934067;28;20403;-85
2023/05/01 11:44:32;;;;;;;13.95;8.00;;;;;;;15.62;54.94;99737.84;4917683;28;20050;-86
2023/05/01 11:47:01;;;;;;;12.35;7.35;;;;;;;15.59;54.42;99740.81;4903041;28;20070;-85
2023/05/01 11:49:28;;;;;;;12.80;7.03;;;;;;;15.58;54.46;99730.31;4913838;28;20056;-85
2023/05/01 11:51:58;;;;;;;12.20;7.55;;;;;;;15.70;54.20;99731.66;4933667;28;20055;-85
2023/05/01 11:54:25;;;;;;;12.00;7.80;;;;;;;15.63;54.86;99726.13;4917591;28;20047;-85
2023/05/01 11:56:59;;;;;;;12.88;8.20;;;;;;;15.62;54.65;99728.94;4922180;28;20047;-86
2023/05/01 11:59:29;;;;;;;9.23;6.35;;;;;;;15.68;54.83;99724.78;4893278;28;20051;-85
2023/05/01 12:01:57;;;;;;;15.02;7.78;;;;;;;15.69;55.25;99718.41;4907663;28;20051;-85
2023/05/01 12:04:29;;;;;;;13.88;8.27;;;;;;;15.75;55.26;99715.09;4915146;28;20106;-86
2023/05/01 12:06:58;;;;;;;12.02;7.80;;;;;;;15.75;54.51;99713.25;4916878;28;20075;-85
2023/05/01 12:09:28;;;;;;;13.18;7.55;;;;;;;15.76;54.16;99708.72;4902308;28;20055;-86
2023/05/01 12:11:59;;;;;;;13.20;7.65;;;;;;;15.78;53.90;99710.22;4921533;28;20047;-86
2023/05/01 12:14:27;;;;;;;12.18;7.50;;;;;;;15.83;54.77;99707.84;4916100;28;20051;-85
2023/05/01 12:16:54;;;;;;;15.82;8.20;;;;;;;15.82;54.49;99708.00;4941478;28;20055;-85
2023/05/01 12:19:21;;;;;;;14.25;8.38;;;;;;;15.79;54.22;99708.34;4933979;28;20524;-86
2023/05/01 12:22:04;;;;;;;12.52;7.18;;;;;;;15.74;53.92;99702.69;4921755;28;20044;-86
2023/05/01 12:24:31;;;;;;;9.40;6.95;;;;;;;15.79;53.91;99709.19;4919604;28;20135;-86
2023/05/01 12:27:02;;;;;;;11.25;7.28;;;;;;;15.80;53.64;99712.72;4919184;28;20043;-86
2023/05/01 12:29:43;;;;;;;10.70;7.32;;;;;;;15.81;53.71;99709.84;4922410;28;20394;-86
2023/05/01 12:32:10;;;;;;;13.20;7.90;;;;;;;15.92;54.17;99708.66;4909061;28;20051;-86
2023/05/01 12:34:39;;;;;;;11.63;7.45;;;;;;;15.98;53.89;99713.31;4891392;28;20079;-86
2023/05/01 12:37:07;;;;;;;10.82;7.10;;;;;;;15.98;53.26;99715.16;4918991;28;20054;-86
2023/05/01 12:39:39;;;;;;;12.20;8.10;;;;;;;15.89;53.98;99714.34;4918183;28;20063;-86
2023/05/01 12:42:12;;;;;;;12.68;7.30;;;;;;;15.98;53.62;99715.16;4934685;28;20043;-86
2023/05/01 12:44:38;;;;;;;;;;;;;;;15.74;53.96;99716.91;4894133;28;20055;-86
2023/05/01 12:47:06;;;;;;;10.57;7.25;;;;;;;15.88;54.38;99710.00;4936022;28;19937;-86
2023/05/01 12:49:35;;;;;;;14.85;8.13;;;;;;;15.91;54.05;99711.50;4921832;28;20348;-86
2023/05/01 12:52:07;;;;;;;10.52;7.65;;;;;;;15.93;54.06;99710.34;4934687;28;20094;-85
2023/05/01 12:54:36;;;;;;;10.32;7.25;;;;;;;15.89;53.77;99703.63;4912902;28;20394;-85
2023/05/01 12:57:13;;;;;;;11.38;7.38;;;;;;;15.91;52.97;99715.00;4917376;28;20092;-86
2023/05/01 12:59:42;;;;;;;11.27;7.68;;;;;;;15.96;53.31;99703.78;4907006;28;20106;-85
2023/05/01 13:02:11;;;;;;;11.20;7.82;;;;;;;16.00;52.84;99713.13;4892253;28;20055;-86
2023/05/01 13:04:38;;;;;;;8.68;7.00;;;;;;;16.03;53.02;99710.97;4920497;28;20052;-86
2023/05/01 13:07:13;;;;;;;11.68;7.13;;;;;;;15.97;52.35;99695.56;4917470;28;20059;-86
2023/05/01 13:09:54;;;;;;;11.68;6.80;;;;;;;16.02;52.47;99703.91;4935664;28;20075;-85
2023/05/01 13:12:23;;;;;;;12.93;6.82;;;;;;;16.16;53.25;99704.22;4917367;28;20060;-85
2023/05/01 13:14:50;;;;;;;9.35;6.85;;;;;;;16.18;52.41;99699.50;4914715;28;20048;-85
2023/05/01 13:17:31;;;;;;;10.63;6.43;;;;;;;16.09;50.93;99693.34;4920934;28;20048;-86
2023/05/01 13:20:00;;;;;;;8.57;6.18;;;;;;;16.18;51.88;99691.44;4918906;28;20055;-86
2023/05/01 13:22:33;;;;;;;15.05;8.57;;;;;;;16.16;52.20;99693.50;4917759;28;20409;-86
2023/05/01 13:25:02;;;;;;;11.75;6.32;;;;;;;16.16;52.09;99685.47;4905514;28;20085;-86
2023/05/01 13:27:31;;;;;;;12.43;6.80;;;;;;;16.16;51.80;99688.97;4905645;28;20058;-85
2023/05/01 13:29:58;;;;;;;8.77;6.25;;;;;;;16.16;51.66;99691.66;4898940;28;20052;-86
2023/05/01 13:32:26;;;;;;;7.60;5.75;;;;;;;16.17;51.27;99679.91;4888117;28;20511;-86
2023/05/01 13:34:53;;;;;;;15.50;5.78;;;;;;;16.20;51.52;99674.19;4920657;28;20517;-86
2023/05/01 13:37:20;;;;;;;10.90;5.68;;;;;;;16.26;51.74;99675.34;4909377;28;20126;-86
2023/05/01 13:39:47;;;;;;;8.25;5.20;;;;;;;16.31;51.73;99674.78;4892510;28;20052;-86
2023/05/01 13:42:22;;;;;;;9.95;6.30;;;;;;;16.27;50.22;99680.53;4889069;28;20512;-85
2023/05/01 13:44:53;;;;;;;7.03;5.32;;;;;;;16.34;50.60;99677.97;4903493;28;20070;-86
2023/05/01 13:47:24;;;;;;;9.07;5.65;;;;;;;16.33;50.79;99672.78;4917827;28;20513;-85
2023/05/01 13:49:51;;;;;;;7.05;5.18;;;;;;;16.35;51.11;99676.13;4914692;28;20047;-85
2023/05/01 13:52:19;;;;;;;10.25;5.30;;;;;;;16.35;51.52;99671.59;4895238;28;20079;-88
2023/05/01 13:54:47;;;;;;;10.27;6.82;;;;;;;16.38;51.24;99673.91;4904827;28;20099;-85
2023/05/01 13:57:15;;;;;;;7.57;6.00;;;;;;;16.39;50.95;99678.28;4917421;28;20052;-86
2023/05/01 13:59:44;;;;;;;7.60;6.13;;;;;;;16.38;51.08;99676.59;4899926;28;20122;-86
2023/05/01 14:02:25;;;;;;;10.95;6.60;;;;;;;16.36;49.97;99684.00;4898006;28;20055;-86